Time,TemperatureF,DewpointF,PressureIn,WindDirection,WindDirectionDegrees,WindSpeedMPH,WindSpeedGustMPH,Humidity,HourlyPrecipIn,Conditions,Clouds,dailyrainin,SoftwareType,DateUTC
2013-06-07 00:04:00,58.1,53.6,30.13,SE,145,0.0,1.0,85,0.00,CLR,,0.00,WeatherDisplay:10.37,2013-06-06 14:04:00,
2013-06-07 00:09:00,58.1,53.6,30.14,ESE,119,1.0,3.0,85,0.00,CLR,,0.00,WeatherDisplay:10.37,2013-06-06 14:09:00,
2013-06-07 00:14:00,58.1,53.6,30.13,ENE,78,2.0,4.0,85,0.00,CLR,,0.00,WeatherDisplay:10.37,2013-06-06 14:14:00,
2013-06-07 00:19:00,58.1,54.0,30.13,ENE,64,0.0,1.0,86,0.00,CLR,,0.00,WeatherDisplay:10.37,2013-06-06 14:19:00,
2013-06-07 00:24:00,58.1,53.6,30.13,NE,47,0.0,0.0,85,0.00,CLR,,0.00,WeatherDisplay:10.37,2013-06-06 14:24:00,
2013-06-07 00:29:00,58.1,53.6,30.13,ENE,78,0.0,0.0,85,0.00,CLR,,0.00,WeatherDisplay:10.37,2013-06-06 14:29:00,
2013-06-07 00:34:00,58.1,53.6,30.13,East,94,0.0,2.0,85,0.00,CLR,,0.00,WeatherDisplay:10.37,2013-06-06 14:34:00,
2013-06-07 00:39:00,58.2,54.0,30.12,East,84,0.0,3.0,86,0.00,CLR,,0.00,WeatherDisplay:10.37,2013-06-06 14:39:00,
2013-06-07 00:44:00,58.3,53.8,30.12,ENE,58,0.0,2.0,85,0.00,CLR,,0.00,WeatherDisplay:10.37,2013-06-06 14:44:00,
2013-06-07 00:49:00,58.3,54.1,30.12,NNE,19,0.0,1.0,86,0.00,CLR,,0.00,WeatherDisplay:10.37,2013-06-06 14:49:00,
2013-06-07 00:54:00,58.1,53.6,30.12,NNE,18,0.0,1.0,85,0.00,CLR,,0.00,WeatherDisplay:10.37,2013-06-06 14:54:00,
2013-06-07 00:59:00,58.0,53.8,30.11,NNE,20,0.0,2.0,86,0.00,CLR,,0.00,WeatherDisplay:10.37,2013-06-06 14:59:00,
2013-06-07 01:04:00,58.0,53.9,30.11,North,8,0.0,0.0,86,0.00,CLR,,0.00,WeatherDisplay:10.37,2013-06-06 15:04:00,
2013-06-07 01:09:00,57.9,53.8,30.11,NNW,345,0.0,0.0,86,0.00,CLR,,0.00,WeatherDisplay:10.37,2013-06-06 15:09:00,
2013-06-07 01:14:00,58.1,53.9,30.11,NNW,330,0.0,0.0,86,0.00,CLR,,0.00,WeatherDisplay:10.37,2013-06-06 15:14:00,
2013-06-07 01:19:00,58.1,53.9,30.12,SSE,148,0.0,1.0,86,0.00,CLR,,0.00,WeatherDisplay:10.37,2013-06-06 15:19:00,
2013-06-07 01:24:00,58.1,53.9,30.11,SE,144,0.0,1.0,86,0.00,CLR,,0.00,WeatherDisplay:10.37,2013-06-06 15:24:00,
2013-06-07 01:29:00,58.2,54.1,30.12,ESE,112,1.0,2.0,86,0.00,CLR,,0.00,WeatherDisplay:10.37,2013-06-06 15:29:00,
2013-06-07 01:39:00,58.2,54.0,30.12,ENE,74,0.0,1.0,86,0.00,CLR,,0.00,WeatherDisplay:10.37,2013-06-06 15:39:00,
2013-06-07 01:44:00,58.3,54.1,30.11,NE,54,0.0,1.0,86,0.00,CLR,,0.00,WeatherDisplay:10.37,2013-06-06 15:44:00,
2013-06-07 01:49:00,58.3,54.1,30.11,ENE,74,0.0,1.0,86,0.00,CLR,,0.00,WeatherDisplay:10.37,2013-06-06 15:49:00,
2013-06-07 01:59:00,58.1,53.9,30.10,East,85,0.0,0.0,86,0.00,CLR,,0.00,WeatherDisplay:10.37,2013-06-06 15:59:00,
2013-06-07 02:04:00,58.3,54.1,30.10,NNE,19,1.0,3.0,86,0.00,CLR,,0.00,WeatherDisplay:10.37,2013-06-06 16:04:00,
2013-06-07 02:09:00,58.5,54.3,30.10,NW,316,0.0,1.0,86,0.00,CLR,,0.00,WeatherDisplay:10.37,2013-06-06 16:09:00,
2013-06-07 02:14:00,58.6,54.1,30.10,SE,145,0.0,1.0,85,0.00,CLR,,0.00,WeatherDisplay:10.37,2013-06-06 16:14:00,
2013-06-07 02:19:00,58.6,54.1,30.10,SE,146,0.0,1.0,85,0.00,CLR,,0.00,WeatherDisplay:10.37,2013-06-06 16:19:00,
2013-06-07 02:29:00,58.5,54.0,30.10,SE,146,0.0,1.0,85,0.00,CLR,,0.00,WeatherDisplay:10.37,2013-06-06 16:29:00,
2013-06-07 02:34:00,58.3,53.8,30.10,SSE,160,0.0,1.0,85,0.00,CLR,,0.00,WeatherDisplay:10.37,2013-06-06 16:34:00,
2013-06-07 02:39:00,58.3,54.1,30.10,SE,141,0.0,2.0,86,0.00,CLR,,0.00,WeatherDisplay:10.37,2013-06-06 16:39:00,
2013-06-07 02:44:00,58.3,54.1,30.10,SE,128,1.0,2.0,86,0.00,CLR,,0.00,WeatherDisplay:10.37,2013-06-06 16:44:00,
2013-06-07 02:49:00,58.1,53.9,30.10,ESE,108,0.0,1.0,86,0.00,CLR,,0.00,WeatherDisplay:10.37,2013-06-06 16:49:00,
2013-06-07 02:54:00,58.1,53.9,30.10,East,87,0.0,2.0,86,0.00,CLR,,0.00,WeatherDisplay:10.37,2013-06-06 16:54:00,
2013-06-07 02:59:00,58.1,53.9,30.10,East,82,0.0,0.0,86,0.00,CLR,,0.00,WeatherDisplay:10.37,2013-06-06 16:59:00,
2013-06-07 03:04:00,58.1,53.9,30.10,ENE,57,0.0,0.0,86,0.00,CLR,,0.00,WeatherDisplay:10.37,2013-06-06 17:04:00,
2013-06-07 03:09:00,58.1,53.9,30.10,NNE,29,0.0,0.0,86,0.00,CLR,,0.00,WeatherDisplay:10.37,2013-06-06 17:09:00,
2013-06-07 03:19:00,57.9,53.8,30.10,North,3,0.0,2.0,86,0.00,CLR,,0.00,WeatherDisplay:10.37,2013-06-06 17:19:00,
2013-06-07 03:24:00,58.1,53.9,30.09,NNW,344,1.0,2.0,86,0.00,CLR,,0.00,WeatherDisplay:10.37,2013-06-06 17:24:00,
2013-06-07 03:29:00,58.3,54.1,30.09,NW,319,2.0,2.0,86,0.00,CLR,,0.00,WeatherDisplay:10.37,2013-06-06 17:29:00,
2013-06-07 03:34:00,58.5,54.3,30.09,NW,311,1.0,4.0,86,0.00,CLR,,0.00,WeatherDisplay:10.37,2013-06-06 17:34:00,
2013-06-07 03:39:00,58.6,54.1,30.09,NW,315,2.0,4.0,85,0.00,CLR,,0.00,WeatherDisplay:10.37,2013-06-06 17:39:00,
2013-06-07 03:44:00,58.8,54.3,30.09,NW,309,2.0,5.0,85,0.00,CLR,,0.00,WeatherDisplay:10.37,2013-06-06 17:44:00,
2013-06-07 03:49:00,59.0,54.5,30.09,NW,316,1.0,5.0,85,0.00,CLR,,0.00,WeatherDisplay:10.37,2013-06-06 17:49:00,
2013-06-07 03:59:00,59.4,54.5,30.09,NW,315,2.0,6.0,84,0.00,CLR,,0.00,WeatherDisplay:10.37,2013-06-06 17:59:00,
2013-06-07 04:04:00,59.4,54.5,30.09,NW,314,2.0,5.0,84,0.00,CLR,,0.00,WeatherDisplay:10.37,2013-06-06 18:04:00,
2013-06-07 04:09:00,59.5,54.7,30.09,NW,320,1.0,3.0,84,0.00,CLR,,0.00,WeatherDisplay:10.37,2013-06-06 18:09:00,
2013-06-07 04:14:00,59.5,54.7,30.09,NW,324,2.0,3.0,84,0.00,CLR,,0.00,WeatherDisplay:10.37,2013-06-06 18:14:00,
2013-06-07 04:19:00,59.5,54.7,30.09,NNW,327,1.0,4.0,84,0.00,CLR,,0.00,WeatherDisplay:10.37,2013-06-06 18:19:00,
2013-06-07 04:24:00,59.5,54.4,30.09,NNW,327,1.0,2.0,83,0.00,CLR,,0.00,WeatherDisplay:10.37,2013-06-06 18:24:00,
2013-06-07 04:29:00,59.7,54.5,30.09,NNW,335,1.0,4.0,83,0.00,CLR,,0.00,WeatherDisplay:10.37,2013-06-06 18:29:00,
2013-06-07 04:34:00,59.7,54.5,30.09,NNW,331,3.0,4.0,83,0.00,CLR,,0.00,WeatherDisplay:10.37,2013-06-06 18:34:00,
2013-06-07 04:39:00,59.7,54.6,30.09,NW,322,1.0,4.0,83,0.00,CLR,,0.00,WeatherDisplay:10.37,2013-06-06 18:39:00,
2013-06-07 04:44:00,59.9,54.7,30.09,NW,326,1.0,6.0,83,0.00,CLR,,0.00,WeatherDisplay:10.37,2013-06-06 18:44:00,
2013-06-07 04:49:00,60.0,54.5,30.09,NNW,342,1.0,5.0,82,0.00,CLR,,0.00,WeatherDisplay:10.37,2013-06-06 18:49:00,
2013-06-07 04:54:00,60.1,54.6,30.09,NNW,336,1.0,4.0,82,0.00,CLR,,0.00,WeatherDisplay:10.37,2013-06-06 18:54:00,
2013-06-07 04:59:00,60.1,54.6,30.09,NW,321,1.0,7.0,82,0.00,CLR,,0.00,WeatherDisplay:10.37,2013-06-06 18:59:00,
2013-06-07 05:04:00,60.1,54.6,30.09,NNW,328,3.0,5.0,82,0.00,CLR,,0.00,WeatherDisplay:10.37,2013-06-06 19:04:00,
2013-06-07 05:09:00,60.1,54.6,30.10,NW,325,2.0,3.0,82,0.00,CLR,,0.00,WeatherDisplay:10.37,2013-06-06 19:09:00,
2013-06-07 05:14:00,60.1,54.6,30.10,NW,322,2.0,3.0,82,0.00,CLR,,0.00,WeatherDisplay:10.37,2013-06-06 19:14:00,
2013-06-07 05:19:00,60.1,54.6,30.10,NNW,333,1.0,4.0,82,0.00,CLR,,0.00,WeatherDisplay:10.37,2013-06-06 19:19:00,
2013-06-07 05:24:00,60.1,54.6,30.10,NNW,335,1.0,3.0,82,0.00,CLR,,0.00,WeatherDisplay:10.37,2013-06-06 19:24:00,
2013-06-07 05:29:00,60.1,54.6,30.10,NNW,337,2.0,4.0,82,0.00,CLR,,0.00,WeatherDisplay:10.37,2013-06-06 19:29:00,
2013-06-07 05:34:00,60.3,54.8,30.10,NNW,338,1.0,4.0,82,0.00,CLR,,0.00,WeatherDisplay:10.37,2013-06-06 19:34:00,
2013-06-07 05:39:00,60.4,54.9,30.10,NNW,338,2.0,5.0,82,0.00,CLR,,0.00,WeatherDisplay:10.37,2013-06-06 19:39:00,
2013-06-07 05:44:00,60.4,54.9,30.10,NNW,338,1.0,3.0,82,0.00,CLR,,0.00,WeatherDisplay:10.37,2013-06-06 19:44:00,
2013-06-07 05:49:00,60.4,54.9,30.11,NNW,329,2.0,4.0,82,0.00,CLR,,0.00,WeatherDisplay:10.37,2013-06-06 19:49:00,
2013-06-07 05:54:00,60.4,54.9,30.11,NNW,327,1.0,4.0,82,0.00,CLR,,0.00,WeatherDisplay:10.37,2013-06-06 19:54:00,
2013-06-07 05:59:00,60.4,54.9,30.11,NW,325,2.0,4.0,82,0.00,CLR,,0.00,WeatherDisplay:10.37,2013-06-06 19:59:00,
2013-06-07 06:04:00,60.6,55.1,30.11,NW,320,1.0,4.0,82,0.00,CLR,,0.00,WeatherDisplay:10.37,2013-06-06 20:04:00,
2013-06-07 06:09:00,60.5,55.0,30.11,NNW,328,0.0,2.0,82,0.00,CLR,,0.00,WeatherDisplay:10.37,2013-06-06 20:09:00,
2013-06-07 06:19:00,60.4,54.9,30.12,NW,310,1.0,5.0,82,0.00,CLR,,0.00,WeatherDisplay:10.37,2013-06-06 20:19:00,
2013-06-07 06:24:00,60.6,55.4,30.12,NNW,346,2.0,3.0,83,0.00,CLR,,0.00,WeatherDisplay:10.37,2013-06-06 20:24:00,
2013-06-07 06:29:00,60.6,55.4,30.12,North,354,1.0,2.0,83,0.00,CLR,,0.00,WeatherDisplay:10.37,2013-06-06 20:29:00,
2013-06-07 06:34:00,60.6,55.4,30.12,North,351,1.0,2.0,83,0.00,CLR,,0.00,WeatherDisplay:10.37,2013-06-06 20:34:00,
2013-06-07 06:39:00,60.6,55.4,30.12,North,349,0.0,2.0,83,0.00,CLR,,0.00,WeatherDisplay:10.37,2013-06-06 20:39:00,
2013-06-07 06:44:00,60.6,55.4,30.12,NNW,346,0.0,2.0,83,0.00,CLR,,0.00,WeatherDisplay:10.37,2013-06-06 20:44:00,
2013-06-07 06:49:00,60.6,55.4,30.12,NNW,340,0.0,2.0,83,0.00,CLR,,0.00,WeatherDisplay:10.37,2013-06-06 20:49:00,
2013-06-07 06:54:00,60.6,55.4,30.12,NNW,336,0.0,2.0,83,0.00,CLR,,0.00,WeatherDisplay:10.37,2013-06-06 20:54:00,
2013-06-07 06:59:00,60.6,55.4,30.12,NNW,338,0.0,2.0,83,0.00,CLR,,0.00,WeatherDisplay:10.37,2013-06-06 20:59:00,
2013-06-07 07:04:00,60.6,55.4,30.12,NNW,346,2.0,2.0,83,0.00,CLR,,0.00,WeatherDisplay:10.37,2013-06-06 21:04:00,
2013-06-07 07:09:00,60.6,55.1,30.12,NNW,341,0.0,2.0,82,0.00,CLR,,0.00,WeatherDisplay:10.37,2013-06-06 21:09:00,
2013-06-07 07:14:00,60.6,55.4,30.12,NNW,343,0.0,4.0,83,0.00,CLR,,0.00,WeatherDisplay:10.37,2013-06-06 21:14:00,
2013-06-07 07:19:00,60.6,55.1,30.13,NNW,342,1.0,4.0,82,0.00,CLR,,0.00,WeatherDisplay:10.37,2013-06-06 21:19:00,
2013-06-07 07:24:00,60.6,55.4,30.13,NNW,348,1.0,5.0,83,0.00,CLR,,0.00,WeatherDisplay:10.37,2013-06-06 21:24:00,
2013-06-07 07:29:00,60.6,55.5,30.12,North,351,1.0,4.0,83,0.00,CLR,,0.00,WeatherDisplay:10.37,2013-06-06 21:29:00,
2013-06-07 07:34:00,60.8,55.6,30.13,NNW,347,1.0,5.0,83,0.00,CLR,,0.00,WeatherDisplay:10.37,2013-06-06 21:34:00,
2013-06-07 07:39:00,60.8,55.6,30.13,NNW,337,1.0,3.0,83,0.00,CLR,,0.00,WeatherDisplay:10.37,2013-06-06 21:39:00,
2013-06-07 07:44:00,60.6,55.5,30.13,NNW,331,2.0,5.0,83,0.00,CLR,,0.00,WeatherDisplay:10.37,2013-06-06 21:44:00,
2013-06-07 07:49:00,60.6,55.4,30.13,NNW,333,1.0,3.0,83,0.00,CLR,,0.00,WeatherDisplay:10.37,2013-06-06 21:49:00,
2013-06-07 07:54:00,60.6,55.4,30.13,NNW,338,1.0,3.0,83,0.00,CLR,,0.00,WeatherDisplay:10.37,2013-06-06 21:54:00,
2013-06-07 07:59:00,60.6,55.4,30.13,NNW,331,1.0,3.0,83,0.00,CLR,,0.00,WeatherDisplay:10.37,2013-06-06 21:59:00,
2013-06-07 08:04:00,60.6,55.4,30.14,NW,325,1.0,4.0,83,0.00,CLR,,0.00,WeatherDisplay:10.37,2013-06-06 22:04:00,
2013-06-07 08:09:00,60.6,55.4,30.14,NW,321,1.0,5.0,83,0.00,CLR,,0.00,WeatherDisplay:10.37,2013-06-06 22:09:00,
2013-06-07 08:19:00,60.5,55.7,30.13,NNW,346,0.0,1.0,84,0.00,CLR,,0.00,WeatherDisplay:10.37,2013-06-06 22:19:00,
2013-06-07 08:24:00,60.4,55.6,30.13,NNW,343,0.0,1.0,84,0.00,CLR,,0.00,WeatherDisplay:10.37,2013-06-06 22:24:00,
2013-06-07 08:29:00,60.4,55.6,30.14,NNW,329,0.0,1.0,84,0.00,CLR,,0.00,WeatherDisplay:10.37,2013-06-06 22:29:00,
2013-06-07 08:34:00,60.4,55.6,30.13,NNW,348,0.0,1.0,84,0.00,CLR,,0.00,WeatherDisplay:10.37,2013-06-06 22:34:00,
2013-06-07 08:39:00,60.4,55.6,30.14,North,355,0.0,2.0,84,0.00,CLR,,0.00,WeatherDisplay:10.37,2013-06-06 22:39:00,
2013-06-07 08:44:00,60.4,55.6,30.13,NNE,15,0.0,0.0,84,0.00,CLR,,0.00,WeatherDisplay:10.37,2013-06-06 22:44:00,
2013-06-07 08:49:00,60.4,55.9,30.13,North,8,0.0,1.0,85,0.00,CLR,,0.00,WeatherDisplay:10.37,2013-06-06 22:49:00,
2013-06-07 08:54:00,60.4,55.9,30.14,NW,321,0.0,2.0,85,0.00,CLR,,0.00,WeatherDisplay:10.37,2013-06-06 22:54:00,
2013-06-07 08:59:00,60.5,56.3,30.14,NW,311,1.0,2.0,86,0.00,CLR,,0.00,WeatherDisplay:10.37,2013-06-06 22:59:00,
2013-06-07 09:04:00,60.6,56.4,30.13,North,353,0.0,2.0,86,0.00,CLR,,0.00,WeatherDisplay:10.37,2013-06-06 23:04:00,
2013-06-07 09:09:00,60.7,56.2,30.13,North,8,1.0,5.0,85,0.00,CLR,,0.00,WeatherDisplay:10.37,2013-06-06 23:09:00,
2013-06-07 09:14:00,61.0,56.4,30.14,North,357,1.0,3.0,85,0.00,CLR,,0.00,WeatherDisplay:10.37,2013-06-06 23:14:00,
2013-06-07 09:19:00,61.2,56.6,30.14,North,351,1.0,2.0,85,0.00,CLR,,0.00,WeatherDisplay:10.37,2013-06-06 23:19:00,
2013-06-07 09:24:00,61.3,56.8,30.13,North,0,2.0,4.0,85,0.00,CLR,,0.00,WeatherDisplay:10.37,2013-06-06 23:24:00,
2013-06-07 09:29:00,61.5,56.6,30.14,North,4,2.0,5.0,84,0.00,CLR,,0.00,WeatherDisplay:10.37,2013-06-06 23:29:00,
2013-06-07 09:34:00,61.5,56.6,30.13,North,2,2.0,5.0,84,0.00,CLR,,0.00,WeatherDisplay:10.37,2013-06-06 23:34:00,
2013-06-07 09:39:00,61.7,56.8,30.13,North,352,2.0,5.0,84,0.00,CLR,,0.00,WeatherDisplay:10.37,2013-06-06 23:39:00,
2013-06-07 09:44:00,61.9,57.0,30.14,NNW,336,1.0,5.0,84,0.00,CLR,,0.00,WeatherDisplay:10.37,2013-06-06 23:44:00,
2013-06-07 09:49:00,61.9,56.7,30.14,NNW,347,1.0,6.0,83,0.00,CLR,,0.00,WeatherDisplay:10.37,2013-06-06 23:49:00,
2013-06-07 09:54:00,62.1,56.8,30.14,North,353,1.0,5.0,83,0.00,CLR,,0.00,WeatherDisplay:10.37,2013-06-06 23:54:00,
2013-06-07 09:59:00,62.2,57.0,30.13,North,353,3.0,5.0,83,0.00,CLR,,0.00,WeatherDisplay:10.37,2013-06-06 23:59:00,
2013-06-07 10:04:00,62.4,57.1,30.13,North,353,3.0,7.0,83,0.00,CLR,,0.00,WeatherDisplay:10.37,2013-06-07 00:04:00,
2013-06-07 10:09:00,62.4,57.2,30.14,NNW,345,1.0,5.0,83,0.00,CLR,,0.00,WeatherDisplay:10.37,2013-06-07 00:09:00,
2013-06-07 10:14:00,62.4,57.2,30.13,NNW,348,2.0,6.0,83,0.00,CLR,,0.00,WeatherDisplay:10.37,2013-06-07 00:14:00,
2013-06-07 10:19:00,62.6,57.3,30.13,North,353,3.0,8.0,83,0.00,CLR,,0.00,WeatherDisplay:10.37,2013-06-07 00:19:00,
2013-06-07 10:24:00,62.7,57.4,30.13,North,352,3.0,5.0,83,0.00,CLR,,0.00,WeatherDisplay:10.37,2013-06-07 00:24:00,
2013-06-07 10:29:00,62.8,57.5,30.12,North,360,2.0,7.0,83,0.00,CLR,,0.00,WeatherDisplay:10.37,2013-06-07 00:29:00,
2013-06-07 10:34:00,62.8,57.5,30.12,North,360,3.0,7.0,83,0.00,CLR,,0.00,WeatherDisplay:10.37,2013-06-07 00:34:00,
2013-06-07 10:39:00,63.0,57.7,30.12,North,356,3.0,7.0,83,0.00,CLR,,0.00,WeatherDisplay:10.37,2013-06-07 00:39:00,
2013-06-07 10:44:00,63.0,57.7,30.12,North,355,3.0,7.0,83,0.00,CLR,,0.00,WeatherDisplay:10.37,2013-06-07 00:44:00,
2013-06-07 10:49:00,63.1,57.9,30.12,North,359,3.0,7.0,83,0.00,CLR,,0.00,WeatherDisplay:10.37,2013-06-07 00:49:00,
2013-06-07 10:54:00,63.3,57.7,30.12,North,360,2.0,6.0,82,0.00,CLR,,0.00,WeatherDisplay:10.37,2013-06-07 00:54:00,
2013-06-07 10:59:00,63.4,57.8,30.11,North,350,1.0,9.0,82,0.00,CLR,,0.00,WeatherDisplay:10.37,2013-06-07 00:59:00,
2013-06-07 11:04:00,63.7,58.1,30.11,NNW,343,1.0,9.0,82,0.00,CLR,,0.00,WeatherDisplay:10.37,2013-06-07 01:04:00,
2013-06-07 11:09:00,63.7,58.1,30.11,NNW,348,5.0,8.0,82,0.00,CLR,,0.00,WeatherDisplay:10.37,2013-06-07 01:09:00,
2013-06-07 11:14:00,64.0,58.1,30.11,NNW,337,1.0,9.0,81,0.00,CLR,,0.00,WeatherDisplay:10.37,2013-06-07 01:14:00,
2013-06-07 11:19:00,64.0,58.1,30.11,NNW,337,6.0,10.0,81,0.00,CLR,,0.00,WeatherDisplay:10.37,2013-06-07 01:19:00,
2013-06-07 11:29:00,64.2,58.5,30.11,NW,323,2.0,5.0,82,0.00,CLR,,0.00,WeatherDisplay:10.37,2013-06-07 01:29:00,
2013-06-07 11:34:00,64.3,58.4,30.10,NNW,334,3.0,7.0,81,0.00,CLR,,0.00,WeatherDisplay:10.37,2013-06-07 01:34:00,
2013-06-07 11:39:00,64.6,58.6,30.10,North,349,3.0,5.0,81,0.00,CLR,,0.00,WeatherDisplay:10.37,2013-06-07 01:39:00,
2013-06-07 11:44:00,64.8,58.8,30.10,NW,316,2.0,4.0,81,0.00,CLR,,0.00,WeatherDisplay:10.37,2013-06-07 01:44:00,
2013-06-07 11:49:00,65.1,59.1,30.09,NNW,330,3.0,7.0,81,0.00,CLR,,0.00,WeatherDisplay:10.37,2013-06-07 01:49:00,
2013-06-07 11:59:00,65.5,59.2,30.09,NW,319,6.0,12.0,80,0.00,CLR,,0.00,WeatherDisplay:10.37,2013-06-07 01:59:00,
2013-06-07 12:04:00,65.8,59.5,30.08,NW,312,1.0,3.0,80,0.00,CLR,,0.00,WeatherDisplay:10.37,2013-06-07 02:04:00,
2013-06-07 12:09:00,66.2,59.8,30.09,NNW,332,3.0,5.0,80,0.00,CLR,,0.00,WeatherDisplay:10.37,2013-06-07 02:09:00,
2013-06-07 12:14:00,66.6,59.9,30.09,NW,318,2.0,7.0,79,0.00,CLR,,0.00,WeatherDisplay:10.37,2013-06-07 02:14:00,
2013-06-07 12:19:00,66.7,59.7,30.08,NW,321,3.0,6.0,78,0.00,CLR,,0.00,WeatherDisplay:10.37,2013-06-07 02:19:00,
2013-06-07 12:29:00,66.7,59.7,30.08,NW,319,3.0,9.0,78,0.00,CLR,,0.00,WeatherDisplay:10.37,2013-06-07 02:29:00,
2013-06-07 12:34:00,66.7,59.3,30.08,NW,317,5.0,9.0,77,0.00,CLR,,0.00,WeatherDisplay:10.37,2013-06-07 02:34:00,
2013-06-07 12:39:00,66.9,59.5,30.08,NW,323,2.0,6.0,77,0.00,CLR,,0.00,WeatherDisplay:10.37,2013-06-07 02:39:00,
2013-06-07 12:44:00,66.9,59.1,30.08,NW,317,5.0,9.0,76,0.00,CLR,,0.00,WeatherDisplay:10.37,2013-06-07 02:44:00,
2013-06-07 12:49:00,66.9,59.1,30.08,NW,319,3.0,10.0,76,0.00,CLR,,0.00,WeatherDisplay:10.37,2013-06-07 02:49:00,
2013-06-07 12:54:00,66.9,59.1,30.07,NW,325,3.0,7.0,76,0.00,CLR,,0.00,WeatherDisplay:10.37,2013-06-07 02:54:00,
2013-06-07 12:59:00,66.9,59.1,30.08,NW,321,5.0,6.0,76,0.00,CLR,,0.00,WeatherDisplay:10.37,2013-06-07 02:59:00,
2013-06-07 13:04:00,66.9,59.1,30.07,NW,318,5.0,8.0,76,0.00,CLR,,0.00,WeatherDisplay:10.37,2013-06-07 03:04:00,
2013-06-07 13:09:00,67.0,59.2,30.07,NW,322,1.0,8.0,76,0.00,CLR,,0.00,WeatherDisplay:10.37,2013-06-07 03:09:00,
2013-06-07 13:14:00,66.9,59.1,30.07,NW,326,5.0,7.0,76,0.00,CLR,,0.00,WeatherDisplay:10.37,2013-06-07 03:14:00,
2013-06-07 13:19:00,67.1,59.3,30.07,NW,322,6.0,8.0,76,0.00,CLR,,0.00,WeatherDisplay:10.37,2013-06-07 03:19:00,
2013-06-07 13:29:00,67.3,59.5,30.06,NNW,339,2.0,11.0,76,0.00,CLR,,0.00,WeatherDisplay:10.37,2013-06-07 03:29:00,
2013-06-07 13:34:00,67.6,59.8,30.06,NNW,333,2.0,7.0,76,0.00,CLR,,0.00,WeatherDisplay:10.37,2013-06-07 03:34:00,
2013-06-07 13:39:00,67.8,59.6,30.05,NNW,330,6.0,8.0,75,0.00,CLR,,0.00,WeatherDisplay:10.37,2013-06-07 03:39:00,
2013-06-07 13:44:00,68.3,59.7,30.06,NNW,335,3.0,8.0,74,0.00,CLR,,0.00,WeatherDisplay:10.37,2013-06-07 03:44:00,
2013-06-07 13:49:00,68.5,59.5,30.05,NW,326,3.0,8.0,73,0.00,CLR,,0.00,WeatherDisplay:10.37,2013-06-07 03:49:00,
2013-06-07 13:54:00,68.7,60.1,30.06,NW,326,5.0,7.0,74,0.00,CLR,,0.00,WeatherDisplay:10.37,2013-06-07 03:54:00,
2013-06-07 13:59:00,68.9,59.9,30.05,NNW,330,3.0,5.0,73,0.00,CLR,,0.00,WeatherDisplay:10.37,2013-06-07 03:59:00,
2013-06-07 14:04:00,69.1,59.7,30.06,NNW,331,3.0,8.0,72,0.00,CLR,,0.00,WeatherDisplay:10.37,2013-06-07 04:04:00,
2013-06-07 14:09:00,69.3,59.8,30.06,NNW,328,2.0,8.0,72,0.00,CLR,,0.00,WeatherDisplay:10.37,2013-06-07 04:09:00,
2013-06-07 14:14:00,69.1,59.7,30.06,NW,321,5.0,8.0,72,0.00,CLR,,0.00,WeatherDisplay:10.37,2013-06-07 04:14:00,
2013-06-07 14:19:00,69.2,59.7,30.06,NW,315,3.0,8.0,72,0.00,CLR,,0.00,WeatherDisplay:10.37,2013-06-07 04:19:00,
2013-06-07 14:24:00,69.1,59.7,30.06,NW,310,2.0,10.0,72,0.00,CLR,,0.00,WeatherDisplay:10.37,2013-06-07 04:24:00,
2013-06-07 14:29:00,68.7,59.3,30.06,NW,305,5.0,9.0,72,0.00,CLR,,0.00,WeatherDisplay:10.37,2013-06-07 04:29:00,
2013-06-07 14:34:00,68.7,59.6,30.06,NW,309,3.0,5.0,73,0.00,CLR,,0.00,WeatherDisplay:10.37,2013-06-07 04:34:00,
2013-06-07 14:39:00,68.7,59.7,30.05,NW,309,2.0,7.0,73,0.00,CLR,,0.00,WeatherDisplay:10.37,2013-06-07 04:39:00,
2013-06-07 14:44:00,68.7,59.7,30.06,NW,317,3.0,7.0,73,0.00,CLR,,0.00,WeatherDisplay:10.37,2013-06-07 04:44:00,
2013-06-07 14:49:00,68.9,59.5,30.05,NW,319,3.0,6.0,72,0.00,CLR,,0.00,WeatherDisplay:10.37,2013-06-07 04:49:00,
2013-06-07 14:54:00,68.9,59.5,30.05,NW,309,2.0,10.0,72,0.00,CLR,,0.00,WeatherDisplay:10.37,2013-06-07 04:54:00,
2013-06-07 14:59:00,68.9,59.5,30.05,WNW,296,2.0,5.0,72,0.00,CLR,,0.00,WeatherDisplay:10.37,2013-06-07 04:59:00,
2013-06-07 15:04:00,69.0,59.6,30.06,WNW,301,6.0,9.0,72,0.00,CLR,,0.00,WeatherDisplay:10.37,2013-06-07 05:04:00,
2013-06-07 15:09:00,69.1,59.7,30.06,NW,316,2.0,10.0,72,0.00,CLR,,0.00,WeatherDisplay:10.37,2013-06-07 05:09:00,
2013-06-07 15:19:00,68.9,59.1,30.06,NW,309,2.0,8.0,71,0.00,CLR,,0.00,WeatherDisplay:10.37,2013-06-07 05:19:00,
2013-06-07 15:24:00,68.8,59.4,30.06,NW,305,2.0,5.0,72,0.00,CLR,,0.00,WeatherDisplay:10.37,2013-06-07 05:24:00,
2013-06-07 15:29:00,68.7,59.3,30.06,NW,318,3.0,6.0,72,0.00,CLR,,0.00,WeatherDisplay:10.37,2013-06-07 05:29:00,
2013-06-07 15:34:00,68.5,59.2,30.06,NW,321,0.0,5.0,72,0.00,CLR,,0.00,WeatherDisplay:10.37,2013-06-07 05:34:00,
2013-06-07 15:39:00,68.5,59.2,30.07,NW,313,0.0,3.0,72,0.00,CLR,,0.00,WeatherDisplay:10.37,2013-06-07 05:39:00,
2013-06-07 15:44:00,68.4,59.0,30.07,NW,306,2.0,6.0,72,0.00,CLR,,0.00,WeatherDisplay:10.37,2013-06-07 05:44:00,
2013-06-07 15:49:00,68.4,59.0,30.07,NW,318,0.0,4.0,72,0.00,CLR,,0.00,WeatherDisplay:10.37,2013-06-07 05:49:00,
2013-06-07 15:54:00,68.2,59.2,30.07,NW,318,1.0,2.0,73,0.00,CLR,,0.00,WeatherDisplay:10.37,2013-06-07 05:54:00,
2013-06-07 15:59:00,68.2,59.2,30.07,WNW,296,0.0,2.0,73,0.00,CLR,,0.00,WeatherDisplay:10.37,2013-06-07 05:59:00,
2013-06-07 16:04:00,67.9,59.0,30.08,WNW,303,0.0,1.0,73,0.00,CLR,,0.00,WeatherDisplay:10.37,2013-06-07 06:04:00,
2013-06-07 16:09:00,67.8,58.8,30.08,WNW,296,0.0,2.0,73,0.00,CLR,,0.00,WeatherDisplay:10.37,2013-06-07 06:09:00,
2013-06-07 16:14:00,67.8,58.8,30.08,West,277,1.0,5.0,73,0.00,CLR,,0.00,WeatherDisplay:10.37,2013-06-07 06:14:00,
2013-06-07 16:19:00,67.8,58.8,30.08,West,279,0.0,3.0,73,0.00,CLR,,0.00,WeatherDisplay:10.37,2013-06-07 06:19:00,
2013-06-07 16:24:00,67.8,58.8,30.08,WNW,292,2.0,4.0,73,0.00,CLR,,0.00,WeatherDisplay:10.37,2013-06-07 06:24:00,
2013-06-07 16:29:00,67.6,58.3,30.09,WNW,289,1.0,3.0,72,0.00,CLR,,0.00,WeatherDisplay:10.37,2013-06-07 06:29:00,
2013-06-07 16:34:00,67.6,58.3,30.09,WNW,297,1.0,3.0,72,0.00,CLR,,0.00,WeatherDisplay:10.37,2013-06-07 06:34:00,
2013-06-07 16:39:00,67.5,58.1,30.09,NW,310,0.0,3.0,72,0.00,CLR,,0.00,WeatherDisplay:10.37,2013-06-07 06:39:00,
2013-06-07 16:44:00,67.3,58.3,30.09,NW,310,0.0,2.0,73,0.00,CLR,,0.00,WeatherDisplay:10.37,2013-06-07 06:44:00,
2013-06-07 16:49:00,67.2,58.3,30.09,NW,306,1.0,4.0,73,0.00,CLR,,0.00,WeatherDisplay:10.37,2013-06-07 06:49:00,
2013-06-07 16:59:00,66.9,58.4,30.10,NW,321,1.0,4.0,74,0.00,CLR,,0.00,WeatherDisplay:10.37,2013-06-07 06:59:00,
2013-06-07 17:04:00,66.9,58.4,30.10,NW,312,1.0,3.0,74,0.00,CLR,,0.00,WeatherDisplay:10.37,2013-06-07 07:04:00,
2013-06-07 17:09:00,66.7,58.2,30.11,NW,310,1.0,3.0,74,0.00,CLR,,0.00,WeatherDisplay:10.37,2013-06-07 07:09:00,
2013-06-07 17:14:00,66.7,58.2,30.11,NW,312,0.0,3.0,74,0.00,CLR,,0.00,WeatherDisplay:10.37,2013-06-07 07:14:00,
2013-06-07 17:19:00,66.6,58.0,30.11,NW,315,0.0,2.0,74,0.00,CLR,,0.00,WeatherDisplay:10.37,2013-06-07 07:19:00,
2013-06-07 17:29:00,66.2,58.0,30.12,WNW,296,0.0,2.0,75,0.00,CLR,,0.00,WeatherDisplay:10.37,2013-06-07 07:29:00,
2013-06-07 17:34:00,66.0,57.9,30.12,WNW,291,0.0,1.0,75,0.00,CLR,,0.00,WeatherDisplay:10.37,2013-06-07 07:34:00,
2013-06-07 17:39:00,65.8,57.7,30.12,West,275,0.0,1.0,75,0.00,CLR,,0.00,WeatherDisplay:10.37,2013-06-07 07:39:00,
2013-06-07 17:44:00,65.7,57.5,30.12,WNW,302,2.0,4.0,75,0.00,CLR,,0.00,WeatherDisplay:10.37,2013-06-07 07:44:00,
2013-06-07 17:49:00,65.5,57.7,30.12,NW,308,1.0,3.0,76,0.00,CLR,,0.00,WeatherDisplay:10.37,2013-06-07 07:49:00,
2013-06-07 17:54:00,65.5,57.7,30.13,WNW,298,0.0,3.0,76,0.00,CLR,,0.00,WeatherDisplay:10.37,2013-06-07 07:54:00,
2013-06-07 17:59:00,65.5,57.7,30.13,WNW,298,0.0,2.0,76,0.00,CLR,,0.00,WeatherDisplay:10.37,2013-06-07 07:59:00,
2013-06-07 18:04:00,65.1,57.4,30.14,WNW,297,0.0,1.0,76,0.00,CLR,,0.00,WeatherDisplay:10.37,2013-06-07 08:04:00,
2013-06-07 18:09:00,65.1,57.7,30.14,SW,236,1.0,2.0,77,0.00,CLR,,0.00,WeatherDisplay:10.37,2013-06-07 08:09:00,
2013-06-07 18:14:00,64.9,57.6,30.14,West,262,0.0,0.0,77,0.00,CLR,,0.00,WeatherDisplay:10.37,2013-06-07 08:14:00,
2013-06-07 18:19:00,64.8,57.4,30.14,WNW,300,0.0,1.0,77,0.00,CLR,,0.00,WeatherDisplay:10.37,2013-06-07 08:19:00,
2013-06-07 18:24:00,64.7,57.3,30.15,WNW,303,0.0,1.0,77,0.00,CLR,,0.00,WeatherDisplay:10.37,2013-06-07 08:24:00,
2013-06-07 18:29:00,64.6,57.2,30.15,NW,314,1.0,2.0,77,0.00,CLR,,0.00,WeatherDisplay:10.37,2013-06-07 08:29:00,
2013-06-07 18:39:00,64.4,57.0,30.16,North,353,0.0,1.0,77,0.00,CLR,,0.00,WeatherDisplay:10.37,2013-06-07 08:39:00,
2013-06-07 18:44:00,64.2,56.9,30.16,SE,138,0.0,2.0,77,0.00,CLR,,0.00,WeatherDisplay:10.37,2013-06-07 08:44:00,
2013-06-07 18:49:00,64.2,56.5,30.17,West,262,0.0,1.0,76,0.00,CLR,,0.00,WeatherDisplay:10.37,2013-06-07 08:49:00,
2013-06-07 18:54:00,64.0,56.3,30.17,SW,228,1.0,4.0,76,0.00,CLR,,0.00,WeatherDisplay:10.37,2013-06-07 08:54:00,
2013-06-07 18:59:00,63.7,56.3,30.17,SW,224,0.0,2.0,77,0.00,CLR,,0.00,WeatherDisplay:10.37,2013-06-07 08:59:00,
2013-06-07 19:04:00,63.7,56.3,30.18,SW,214,0.0,2.0,77,0.00,CLR,,0.00,WeatherDisplay:10.37,2013-06-07 09:04:00,
2013-06-07 19:09:00,63.5,56.1,30.18,SSE,166,0.0,1.0,77,0.00,CLR,,0.00,WeatherDisplay:10.37,2013-06-07 09:09:00,
2013-06-07 19:14:00,63.3,56.0,30.18,South,174,0.0,1.0,77,0.00,CLR,,0.00,WeatherDisplay:10.37,2013-06-07 09:14:00,
2013-06-07 19:19:00,63.1,55.8,30.19,SW,217,1.0,2.0,77,0.00,CLR,,0.00,WeatherDisplay:10.37,2013-06-07 09:19:00,
2013-06-07 19:24:00,63.0,54.9,30.19,SW,231,3.0,6.0,75,0.00,CLR,,0.00,WeatherDisplay:10.37,2013-06-07 09:24:00,
2013-06-07 19:29:00,63.0,54.5,30.19,SW,235,2.0,6.0,74,0.00,CLR,,0.00,WeatherDisplay:10.37,2013-06-07 09:29:00,
2013-06-07 19:39:00,63.1,54.3,30.20,WSW,242,0.0,1.0,73,0.00,CLR,,0.00,WeatherDisplay:10.37,2013-06-07 09:39:00,
2013-06-07 19:44:00,63.1,54.0,30.20,SW,218,0.0,2.0,72,0.00,CLR,,0.00,WeatherDisplay:10.37,2013-06-07 09:44:00,
2013-06-07 19:49:00,63.0,53.8,30.21,WSW,252,0.0,1.0,72,0.00,CLR,,0.00,WeatherDisplay:10.37,2013-06-07 09:49:00,
2013-06-07 19:54:00,62.6,53.4,30.20,West,259,0.0,2.0,72,0.00,CLR,,0.00,WeatherDisplay:10.37,2013-06-07 09:54:00,
2013-06-07 19:59:00,62.4,52.9,30.20,WSW,251,0.0,2.0,71,0.00,CLR,,0.00,WeatherDisplay:10.37,2013-06-07 09:59:00,
2013-06-07 20:04:00,62.4,52.9,30.20,WSW,256,0.0,1.0,71,0.00,CLR,,0.00,WeatherDisplay:10.37,2013-06-07 10:04:00,
2013-06-07 20:09:00,62.4,52.9,30.20,West,260,0.0,1.0,71,0.00,CLR,,0.00,WeatherDisplay:10.37,2013-06-07 10:09:00,
2013-06-07 20:19:00,62.2,52.3,30.21,WNW,293,0.0,1.0,70,0.00,CLR,,0.00,WeatherDisplay:10.37,2013-06-07 10:19:00,
2013-06-07 20:24:00,62.2,52.3,30.21,NNW,343,0.0,1.0,70,0.00,CLR,,0.00,WeatherDisplay:10.37,2013-06-07 10:24:00,
2013-06-07 20:29:00,62.1,51.8,30.21,NNW,336,0.0,4.0,69,0.00,CLR,,0.00,WeatherDisplay:10.37,2013-06-07 10:29:00,
2013-06-07 20:34:00,62.0,51.7,30.22,West,277,0.0,3.0,69,0.00,CLR,,0.00,WeatherDisplay:10.37,2013-06-07 10:34:00,
2013-06-07 20:39:00,61.9,51.6,30.22,NNW,335,0.0,1.0,69,0.00,CLR,,0.00,WeatherDisplay:10.37,2013-06-07 10:39:00,
2013-06-07 20:49:00,61.5,51.6,30.22,NNW,327,0.0,1.0,70,0.00,CLR,,0.00,WeatherDisplay:10.37,2013-06-07 10:49:00,
2013-06-07 20:54:00,61.4,51.5,30.22,NW,320,0.0,2.0,70,0.00,CLR,,0.00,WeatherDisplay:10.37,2013-06-07 10:54:00,
2013-06-07 20:59:00,61.3,51.1,30.22,NNW,330,0.0,0.0,69,0.00,CLR,,0.00,WeatherDisplay:10.37,2013-06-07 10:59:00,
2013-06-07 21:04:00,61.4,51.1,30.22,NNW,337,0.0,1.0,69,0.00,CLR,,0.00,WeatherDisplay:10.37,2013-06-07 11:04:00,
2013-06-07 21:09:00,61.5,51.6,30.22,North,10,0.0,0.0,70,0.00,CLR,,0.00,WeatherDisplay:10.37,2013-06-07 11:09:00,
2013-06-07 21:14:00,61.2,51.3,30.22,North,5,0.0,1.0,70,0.00,CLR,,0.00,WeatherDisplay:10.37,2013-06-07 11:14:00,
2013-06-07 21:19:00,61.0,51.1,30.23,North,10,0.0,1.0,70,0.00,CLR,,0.00,WeatherDisplay:10.37,2013-06-07 11:19:00,
2013-06-07 21:24:00,60.6,50.8,30.22,NE,35,1.0,2.0,70,0.00,CLR,,0.00,WeatherDisplay:10.37,2013-06-07 11:24:00,
2013-06-07 21:29:00,60.4,50.6,30.22,NNE,24,0.0,2.0,70,0.00,CLR,,0.00,WeatherDisplay:10.37,2013-06-07 11:29:00,
2013-06-07 21:34:00,60.1,50.3,30.22,NNW,348,1.0,2.0,70,0.00,CLR,,0.00,WeatherDisplay:10.37,2013-06-07 11:34:00,
2013-06-07 21:39:00,59.9,50.5,30.22,NW,324,0.0,2.0,71,0.00,CLR,,0.00,WeatherDisplay:10.37,2013-06-07 11:39:00,
2013-06-07 21:44:00,60.1,50.3,30.23,NNW,336,0.0,1.0,70,0.00,CLR,,0.00,WeatherDisplay:10.37,2013-06-07 11:44:00,
2013-06-07 21:49:00,60.1,50.3,30.23,NNW,338,1.0,2.0,70,0.00,CLR,,0.00,WeatherDisplay:10.37,2013-06-07 11:49:00,
2013-06-07 21:54:00,60.0,50.1,30.22,NNW,328,1.0,3.0,70,0.00,CLR,,0.00,WeatherDisplay:10.37,2013-06-07 11:54:00,
2013-06-07 21:59:00,60.1,50.6,30.23,North,10,0.0,0.0,71,0.00,CLR,,0.00,WeatherDisplay:10.37,2013-06-07 11:59:00,
2013-06-07 22:04:00,59.7,50.6,30.23,East,84,0.0,0.0,72,0.00,CLR,,0.00,WeatherDisplay:10.37,2013-06-07 12:04:00,
2013-06-07 22:09:00,59.4,50.3,30.23,NNE,28,0.0,1.0,72,0.00,CLR,,0.00,WeatherDisplay:10.37,2013-06-07 12:09:00,
2013-06-07 22:14:00,58.8,49.8,30.23,WNW,298,0.0,1.0,72,0.00,CLR,,0.00,WeatherDisplay:10.37,2013-06-07 12:14:00,
2013-06-07 22:19:00,58.5,49.8,30.24,NW,323,0.0,1.0,73,0.00,CLR,,0.00,WeatherDisplay:10.37,2013-06-07 12:19:00,
2013-06-07 22:24:00,58.6,50.3,30.24,East,86,0.0,0.0,74,0.00,CLR,,0.00,WeatherDisplay:10.37,2013-06-07 12:24:00,
2013-06-07 22:29:00,58.1,49.9,30.24,NE,41,0.0,0.0,74,0.00,CLR,,0.00,WeatherDisplay:10.37,2013-06-07 12:29:00,
2013-06-07 22:34:00,57.9,49.7,30.24,NW,307,0.0,1.0,74,0.00,CLR,,0.00,WeatherDisplay:10.37,2013-06-07 12:34:00,
2013-06-07 22:39:00,57.6,49.4,30.24,SSW,194,0.0,0.0,74,0.00,CLR,,0.00,WeatherDisplay:10.37,2013-06-07 12:39:00,
2013-06-07 22:49:00,57.4,49.5,30.25,NE,40,0.0,1.0,75,0.00,CLR,,0.00,WeatherDisplay:10.37,2013-06-07 12:49:00,
2013-06-07 22:54:00,57.2,49.3,30.24,North,8,0.0,1.0,75,0.00,CLR,,0.00,WeatherDisplay:10.37,2013-06-07 12:54:00,
2013-06-07 22:59:00,57.0,49.5,30.25,NNW,345,0.0,0.0,76,0.00,CLR,,0.00,WeatherDisplay:10.37,2013-06-07 12:59:00,
2013-06-07 23:04:00,57.0,49.5,30.25,North,356,0.0,1.0,76,0.00,CLR,,0.00,WeatherDisplay:10.37,2013-06-07 13:04:00,
2013-06-07 23:09:00,57.0,49.5,30.25,NNE,32,0.0,0.0,76,0.00,CLR,,0.00,WeatherDisplay:10.37,2013-06-07 13:09:00,
2013-06-07 23:14:00,56.8,49.4,30.25,NNW,338,0.0,1.0,76,0.00,CLR,,0.00,WeatherDisplay:10.37,2013-06-07 13:14:00,
2013-06-07 23:19:00,56.5,49.0,30.25,WNW,298,0.0,2.0,76,0.00,CLR,,0.00,WeatherDisplay:10.37,2013-06-07 13:19:00,
2013-06-07 23:24:00,56.6,49.1,30.25,NE,39,1.0,2.0,76,0.00,CLR,,0.00,WeatherDisplay:10.37,2013-06-07 13:24:00,
2013-06-07 23:29:00,56.5,49.0,30.25,NNE,17,0.0,1.0,76,0.00,CLR,,0.00,WeatherDisplay:10.37,2013-06-07 13:29:00,
2013-06-07 23:39:00,56.2,48.7,30.26,NNW,329,1.0,1.0,76,0.00,CLR,,0.00,WeatherDisplay:10.37,2013-06-07 13:39:00,
2013-06-07 23:44:00,56.1,48.7,30.26,SE,136,1.0,3.0,76,0.00,CLR,,0.00,WeatherDisplay:10.37,2013-06-07 13:44:00,
2013-06-07 23:49:00,55.9,48.5,30.26,SE,136,0.0,2.0,76,0.00,CLR,,0.00,WeatherDisplay:10.37,2013-06-07 13:49:00,
2013-06-07 23:54:00,55.8,48.3,30.26,SSW,205,1.0,3.0,76,0.00,CLR,,0.00,WeatherDisplay:10.37,2013-06-07 13:54:00,
2013-06-07 23:59:00,55.8,48.7,30.26,SW,234,0.0,2.0,77,0.00,CLR,,0.00,WeatherDisplay:10.37,2013-06-07 13:59:00,